Time;durP1;ratioP1;P1;durP2;ratioP2;P2;SDS_P1;SDS_P2;PMS_P1;PMS_P2;Temp;Humidity;BMP_temperature;BMP_pressure;BME280_temperature;BME280_humidity;BME280_pressure;Samples;Min_cycle;Max_cycle;Signal;HPM_P1;HPM_P2
2023/03/25 00:01:14;;;;;;;1.67;1.00;;;12.10;99.90;;;;;;5072760;28;20240;-63
2023/03/25 00:03:45;;;;;;;1.00;0.53;;;12.00;99.90;;;;;;5072624;28;20244;-63
2023/03/25 00:06:13;;;;;;;1.23;0.70;;;12.00;99.90;;;;;;5072049;28;20213;-63
2023/03/25 00:08:40;;;;;;;2.17;0.50;;;11.90;99.90;;;;;;5072263;28;20215;-63
2023/03/25 00:11:07;;;;;;;1.47;0.60;;;11.90;99.90;;;;;;5072542;28;20224;-63
2023/03/25 00:13:34;;;;;;;1.73;0.57;;;11.90;99.90;;;;;;5072237;28;20208;-63
2023/03/25 00:16:01;;;;;;;1.37;0.40;;;11.80;99.90;;;;;;5072117;28;20232;-64
2023/03/25 00:18:32;;;;;;;1.53;0.50;;;11.70;99.90;;;;;;5072123;28;20290;-63
2023/03/25 00:21:00;;;;;;;2.47;0.40;;;11.70;99.90;;;;;;5072534;28;20630;-64
2023/03/25 00:23:28;;;;;;;1.80;0.80;;;11.60;99.90;;;;;;5072340;28;20233;-63
2023/03/25 00:25:59;;;;;;;1.00;0.33;;;11.70;99.90;;;;;;5072325;28;20539;-63
2023/03/25 00:28:27;;;;;;;1.40;0.60;;;11.60;99.90;;;;;;5072283;28;20209;-63
2023/03/25 00:30:54;;;;;;;2.20;0.60;;;11.60;99.90;;;;;;5072738;28;20205;-63
2023/03/25 00:33:21;;;;;;;0.83;0.50;;;11.60;99.90;;;;;;5072364;28;20208;-65
2023/03/25 00:35:53;;;;;;;1.57;0.30;;;11.60;99.90;;;;;;5072197;28;20601;-63
2023/03/25 00:38:20;;;;;;;0.80;0.50;;;11.60;99.90;;;;;;5071942;28;20208;-63
2023/03/25 00:40:47;;;;;;;1.33;0.40;;;11.70;99.90;;;;;;5072074;28;20208;-64
2023/03/25 00:43:14;;;;;;;0.87;0.43;;;11.70;99.90;;;;;;5072199;28;20221;-63
2023/03/25 00:45:41;;;;;;;1.67;0.67;;;11.60;99.90;;;;;;5071987;28;20320;-63
2023/03/25 00:48:07;;;;;;;1.40;0.50;;;11.60;99.90;;;;;;5071888;28;20212;-63
2023/03/25 00:50:34;;;;;;;1.33;0.50;;;11.70;99.90;;;;;;5072115;28;20205;-63
2023/03/25 00:53:02;;;;;;;1.07;0.50;;;11.70;99.90;;;;;;5072167;28;20261;-63
2023/03/25 00:55:29;;;;;;;2.57;0.63;;;11.70;99.90;;;;;;5071788;28;20228;-65
2023/03/25 00:57:56;;;;;;;0.80;0.47;;;11.70;99.90;;;;;;5072155;28;20208;-64
2023/03/25 01:00:23;;;;;;;1.20;0.50;;;11.80;99.90;;;;;;5072238;28;20699;-64
2023/03/25 01:02:52;;;;;;;1.83;0.50;;;11.80;99.90;;;;;;5072207;28;20220;-63
2023/03/25 01:05:20;;;;;;;1.00;0.53;;;11.70;99.90;;;;;;5072128;28;20241;-63
2023/03/25 01:07:48;;;;;;;1.10;0.33;;;11.70;99.90;;;;;;5071510;28;20300;-63
2023/03/25 01:10:16;;;;;;;1.90;0.50;;;11.70;99.90;;;;;;5071715;28;20240;-63
2023/03/25 01:12:43;;;;;;;0.30;0.30;;;11.60;99.90;;;;;;5071838;28;20279;-63
2023/03/25 01:15:11;;;;;;;1.43;0.50;;;11.60;99.90;;;;;;5071599;28;20663;-63
2023/03/25 01:17:37;;;;;;;1.17;0.63;;;11.70;99.90;;;;;;5071744;28;20208;-63
2023/03/25 01:20:07;;;;;;;2.27;0.80;;;11.70;99.90;;;;;;5074520;28;20668;-64
2023/03/25 01:22:34;;;;;;;1.37;0.40;;;11.70;99.90;;;;;;5075645;28;20204;-67
2023/03/25 01:25:00;;;;;;;2.23;0.60;;;11.60;99.90;;;;;;5075775;28;20236;-63
2023/03/25 01:27:29;;;;;;;2.13;0.60;;;11.60;99.90;;;;;;5075738;28;20209;-62
2023/03/25 01:29:56;;;;;;;3.00;0.77;;;11.60;99.90;;;;;;5075682;28;20205;-63
2023/03/25 01:32:22;;;;;;;1.27;0.63;;;11.40;99.90;;;;;;5075653;28;20208;-63
2023/03/25 01:34:49;;;;;;;1.80;0.60;;;11.30;99.90;;;;;;5075429;28;20645;-63
2023/03/25 01:37:16;;;;;;;2.87;1.07;;;11.10;99.90;;;;;;5075434;28;20618;-63
2023/03/25 01:39:43;;;;;;;3.60;0.80;;;11.00;99.90;;;;;;5075377;28;20205;-63
2023/03/25 01:42:11;;;;;;;1.13;0.67;;;10.80;99.90;;;;;;5075424;28;20209;-63
2023/03/25 01:45:19;;;;;;;1.83;0.67;;;10.70;99.90;;;;;;5075174;28;20236;-63
2023/03/25 01:47:49;;;;;;;3.10;0.93;;;10.70;99.90;;;;;;5075056;28;20209;-64
2023/03/25 01:50:17;;;;;;;2.13;0.63;;;10.50;99.90;;;;;;5075134;28;20209;-63
2023/03/25 01:52:47;;;;;;;3.23;0.90;;;10.60;99.90;;;;;;5075354;28;20208;-63
2023/03/25 01:55:16;;;;;;;2.23;0.80;;;10.60;99.90;;;;;;5075078;28;20228;-63
2023/03/25 01:57:44;;;;;;;1.23;0.60;;;10.70;99.90;;;;;;5074739;28;20208;-62
2023/03/25 02:00:13;;;;;;;1.87;0.70;;;10.80;99.90;;;;;;5074775;28;20212;-63
2023/03/25 02:02:42;;;;;;;2.57;0.70;;;10.80;99.90;;;;;;5075034;28;20231;-64
2023/03/25 02:05:16;;;;;;;3.03;0.70;;;10.90;99.90;;;;;;5074907;28;20255;-62
2023/03/25 02:07:47;;;;;;;1.80;0.80;;;11.00;99.90;;;;;;5075094;28;20628;-64
2023/03/25 02:10:15;;;;;;;2.70;0.70;;;10.90;99.90;;;;;;5074975;28;20205;-63
2023/03/25 02:12:44;;;;;;;1.27;0.60;;;10.90;99.90;;;;;;5074640;28;20212;-62
2023/03/25 02:15:13;;;;;;;0.70;0.50;;;10.90;99.90;;;;;;5075029;28;20260;-63
2023/03/25 02:17:58;;;;;;;55.80;48.53;;;10.80;99.90;;;;;;5075033;28;20632;-63
2023/03/25 02:20:53;;;;;;;4.60;0.87;;;10.80;99.90;;;;;;5074812;28;20205;-63
2023/03/25 02:23:57;;;;;;;1.27;0.60;;;10.70;99.90;;;;;;5074245;28;20228;-65
2023/03/25 02:27:13;;;;;;;3.37;0.83;;;10.70;99.90;;;;;;5074699;28;20830;-63
2023/03/25 02:30:08;;;;;;;2.63;0.70;;;10.70;99.90;;;;;;5073985;28;20732;-63
2023/03/25 02:32:55;;;;;;;1.50;0.60;;;10.70;99.90;;;;;;5074517;28;20209;-64
2023/03/25 02:35:37;;;;;;;2.47;0.83;;;10.80;99.90;;;;;;5074318;28;20228;-64
2023/03/25 02:38:17;;;;;;;4.07;0.70;;;10.80;99.90;;;;;;5073800;28;20677;-63
2023/03/25 02:40:48;;;;;;;1.40;0.70;;;10.80;99.90;;;;;;5074439;28;20331;-64
2023/03/25 02:43:21;;;;;;;2.03;0.60;;;10.90;99.90;;;;;;5074154;28;20231;-64
2023/03/25 02:45:52;;;;;;;1.17;0.57;;;10.80;99.90;;;;;;5073930;28;20229;-64
2023/03/25 02:48:23;;;;;;;1.43;0.43;;;11.00;99.90;;;;;;5073757;28;20662;-64
2023/03/25 02:50:53;;;;;;;2.80;0.93;;;11.00;99.90;;;;;;5074106;28;20201;-66
2023/03/25 02:53:26;;;;;;;3.17;0.93;;;11.10;99.90;;;;;;5074347;28;20649;-63
2023/03/25 02:55:58;;;;;;;2.07;0.60;;;11.10;99.90;;;;;;5073881;28;20298;-63
2023/03/25 02:58:28;;;;;;;1.77;0.80;;;11.10;99.90;;;;;;5073549;28;20294;-64
2023/03/25 03:00:57;;;;;;;0.80;0.40;;;10.80;99.90;;;;;;5073951;28;20285;-63
2023/03/25 03:03:25;;;;;;;1.97;0.50;;;10.50;99.90;;;;;;5073805;28;20221;-63
2023/03/25 03:05:56;;;;;;;3.30;0.50;;;10.30;99.90;;;;;;5073979;28;20296;-66
2023/03/25 03:08:33;;;;;;;2.37;0.57;;;10.10;99.90;;;;;;5073514;28;20270;-67
2023/03/25 03:11:07;;;;;;;2.10;0.43;;;10.00;99.90;;;;;;5073498;28;20212;-69
2023/03/25 03:13:45;;;;;;;1.20;0.50;;;9.90;99.90;;;;;;5073827;28;20211;-66
2023/03/25 03:16:18;;;;;;;0.67;0.40;;;9.80;99.90;;;;;;5073426;28;20337;-68
2023/03/25 03:18:51;;;;;;;2.20;0.40;;;9.70;99.90;;;;;;5073273;28;20227;-68
2023/03/25 03:21:25;;;;;;;0.47;0.30;;;9.70;99.90;;;;;;5073341;28;20734;-68
2023/03/25 03:23:59;;;;;;;0.67;0.43;;;9.50;99.90;;;;;;5073496;28;20684;-68
2023/03/25 03:26:31;;;;;;;1.03;0.20;;;9.40;99.90;;;;;;5074872;28;20259;-67
2023/03/25 03:29:05;;;;;;;0.83;0.43;;;9.20;99.90;;;;;;5074971;28;20606;-67
2023/03/25 03:31:36;;;;;;;0.73;0.30;;;9.20;99.90;;;;;;5074349;28;20212;-67
2023/03/25 03:34:09;;;;;;;0.77;0.50;;;9.20;99.90;;;;;;5073849;28;20254;-67
2023/03/25 03:36:42;;;;;;;0.50;0.30;;;9.20;99.90;;;;;;5073760;28;20208;-68
2023/03/25 03:39:18;;;;;;;1.00;0.20;;;9.10;99.90;;;;;;5073036;28;20209;-68
2023/03/25 03:41:49;;;;;;;1.57;0.30;;;9.10;99.90;;;;;;5072327;28;20626;-68
2023/03/25 03:44:20;;;;;;;0.83;0.33;;;9.00;99.90;;;;;;5072753;28;20233;-68
2023/03/25 03:46:53;;;;;;;1.00;0.37;;;9.00;99.90;;;;;;5073093;28;20215;-68
2023/03/25 03:49:25;;;;;;;0.83;0.50;;;9.00;99.90;;;;;;5073030;28;20219;-67
2023/03/25 03:51:57;;;;;;;1.17;0.43;;;9.00;99.90;;;;;;5073015;28;20217;-68
2023/03/25 03:54:27;;;;;;;2.00;0.53;;;9.00;99.90;;;;;;5072817;28;20320;-68
2023/03/25 03:56:57;;;;;;;1.03;0.30;;;9.00;99.90;;;;;;5072701;28;20209;-68
2023/03/25 03:59:33;;;;;;;1.13;0.43;;;9.00;99.90;;;;;;5072351;28;20209;-68
2023/03/25 04:02:03;;;;;;;2.07;0.40;;;8.90;99.90;;;;;;5072977;28;20215;-68
2023/03/25 04:04:33;;;;;;;1.17;0.27;;;9.00;99.90;;;;;;5072484;28;20232;-68
2023/03/25 04:07:04;;;;;;;0.30;0.30;;;9.20;99.90;;;;;;5072477;28;20212;-68
2023/03/25 04:09:39;;;;;;;0.90;0.60;;;9.30;99.90;;;;;;5072309;28;20263;-68
2023/03/25 04:12:13;;;;;;;1.53;0.37;;;9.30;99.90;;;;;;5072775;28;20215;-67
2023/03/25 04:14:40;;;;;;;1.60;0.67;;;9.30;99.90;;;;;;5072309;28;20709;-66
2023/03/25 04:17:07;;;;;;;1.03;0.53;;;9.20;99.90;;;;;;5072500;28;20254;-68
2023/03/25 04:19:34;;;;;;;1.20;0.40;;;9.20;99.90;;;;;;5072236;28;20201;-68
2023/03/25 04:22:01;;;;;;;1.67;0.40;;;9.20;99.90;;;;;;5072290;28;20248;-66
2023/03/25 04:24:30;;;;;;;1.40;0.57;;;9.20;99.90;;;;;;5072353;28;20256;-68
2023/03/25 04:26:58;;;;;;;0.87;0.43;;;9.10;99.90;;;;;;5072384;28;20204;-66
2023/03/25 04:29:25;;;;;;;1.90;0.50;;;9.10;99.90;;;;;;5071890;28;20205;-67
2023/03/25 04:31:54;;;;;;;1.13;0.50;;;9.20;99.90;;;;;;5072289;28;20312;-68
2023/03/25 04:34:22;;;;;;;1.40;0.50;;;9.40;99.90;;;;;;5072005;28;20228;-68
2023/03/25 04:36:49;;;;;;;1.40;0.70;;;9.50;99.90;;;;;;5072038;28;20235;-68
2023/03/25 04:39:17;;;;;;;0.97;0.43;;;9.60;99.90;;;;;;5072160;28;20233;-68
2023/03/25 04:41:44;;;;;;;2.23;0.40;;;9.70;99.90;;;;;;5072215;28;20201;-68
2023/03/25 04:44:12;;;;;;;0.73;0.20;;;9.70;99.90;;;;;;5072002;28;20229;-68
2023/03/25 04:46:40;;;;;;;1.20;0.47;;;9.70;99.90;;;;;;5071973;28;20200;-68
2023/03/25 04:49:12;;;;;;;0.53;0.30;;;9.70;99.90;;;;;;5071663;28;20212;-68
2023/03/25 04:51:40;;;;;;;1.43;0.40;;;9.70;99.90;;;;;;5072225;28;20204;-67
2023/03/25 04:54:07;;;;;;;1.10;0.40;;;9.60;99.90;;;;;;5071859;28;20228;-66
2023/03/25 04:56:35;;;;;;;1.03;0.60;;;9.50;99.90;;;;;;5071744;28;20716;-68
2023/03/25 04:59:03;;;;;;;4.23;0.40;;;9.30;99.90;;;;;;5071718;28;20205;-67
2023/03/25 05:01:31;;;;;;;1.27;0.47;;;9.20;99.90;;;;;;5072242;28;20200;-67
2023/03/25 05:04:03;;;;;;;0.50;0.40;;;9.00;99.90;;;;;;5071792;28;20209;-66
2023/03/25 05:06:32;;;;;;;1.40;0.60;;;9.00;99.90;;;;;;5071888;28;20682;-68
2023/03/25 05:09:00;;;;;;;1.30;0.43;;;8.80;99.90;;;;;;5071771;28;20304;-67
2023/03/25 05:11:27;;;;;;;1.40;0.20;;;8.70;99.90;;;;;;5071794;28;20209;-68
2023/03/25 05:13:54;;;;;;;0.80;0.30;;;8.60;99.90;;;;;;5071516;28;20201;-67
2023/03/25 05:16:21;;;;;;;2.80;0.50;;;8.50;99.90;;;;;;5071698;28;20205;-67
2023/03/25 05:18:49;;;;;;;0.60;0.30;;;8.50;99.90;;;;;;5071793;28;20240;-67
2023/03/25 05:21:16;;;;;;;1.40;0.20;;;8.50;99.90;;;;;;5071820;28;20487;-68
2023/03/25 05:23:43;;;;;;;1.30;0.80;;;8.60;99.90;;;;;;5071631;28;20684;-67
2023/03/25 05:26:10;;;;;;;1.50;0.57;;;8.70;99.90;;;;;;5071444;28;20315;-68
2023/03/25 05:28:37;;;;;;;1.23;0.43;;;8.90;99.90;;;;;;5071359;28;20204;-68
2023/03/25 05:31:07;;;;;;;2.00;0.50;;;9.00;99.90;;;;;;5071863;28;20205;-66
2023/03/25 05:33:35;;;;;;;2.37;0.43;;;9.10;99.90;;;;;;5071513;28;20665;-68
2023/03/25 05:36:04;;;;;;;1.50;0.63;;;9.20;99.90;;;;;;5071451;28;20229;-66
2023/03/25 05:38:32;;;;;;;3.43;1.73;;;9.40;99.90;;;;;;5071460;28;20209;-68
2023/03/25 05:40:59;;;;;;;1.70;0.73;;;9.50;99.90;;;;;;5071446;28;20224;-66
2023/03/25 05:43:26;;;;;;;1.30;0.50;;;9.50;99.90;;;;;;5071621;28;20240;-68
2023/03/25 05:45:52;;;;;;;1.17;0.50;;;9.60;99.90;;;;;;5071299;28;20708;-66
2023/03/25 05:48:19;;;;;;;1.37;0.60;;;9.60;99.90;;;;;;5071454;28;20209;-67
2023/03/25 05:50:46;;;;;;;4.27;0.80;;;9.70;99.90;;;;;;5071567;28;20200;-68
2023/03/25 05:53:15;;;;;;;1.67;0.87;;;9.80;99.90;;;;;;5071525;28;20209;-67
2023/03/25 05:55:42;;;;;;;5.83;1.33;;;9.90;99.90;;;;;;5071400;28;20233;-68
2023/03/25 05:58:08;;;;;;;2.57;0.67;;;10.00;99.90;;;;;;5071695;28;20227;-67
2023/03/25 06:00:35;;;;;;;2.73;0.80;;;10.00;99.90;;;;;;5071421;28;20679;-67
2023/03/25 06:03:02;;;;;;;1.40;0.60;;;10.00;99.90;;;;;;5071526;28;20662;-67
2023/03/25 06:05:29;;;;;;;2.87;0.80;;;10.10;99.90;;;;;;5072949;28;20255;-70
2023/03/25 06:07:56;;;;;;;2.90;0.80;;;10.20;99.90;;;;;;5075101;28;20216;-66
2023/03/25 06:10:25;;;;;;;10.27;5.87;;;10.20;99.90;;;;;;5074576;28;20253;-67
2023/03/25 06:12:52;;;;;;;3.33;1.10;;;10.40;99.90;;;;;;5074425;28;20200;-67
2023/03/25 06:15:32;;;;;;;4.37;1.50;;;10.50;99.90;;;;;;5074834;28;20225;-67
2023/03/25 06:17:59;;;;;;;3.93;1.40;;;10.50;99.90;;;;;;5074688;28;20209;-68
2023/03/25 06:20:26;;;;;;;3.97;1.43;;;10.60;99.90;;;;;;5074320;28;20680;-67
2023/03/25 06:22:53;;;;;;;4.07;1.77;;;10.70;99.90;;;;;;5074819;28;20213;-68
2023/03/25 06:25:20;;;;;;;7.00;3.60;;;10.70;99.90;;;;;;5074674;28;20233;-66
2023/03/25 06:27:50;;;;;;;2.53;0.97;;;10.70;99.90;;;;;;5074690;28;20205;-68
2023/03/25 06:30:18;;;;;;;3.47;1.23;;;10.90;99.90;;;;;;5074378;28;20201;-65
2023/03/25 06:32:49;;;;;;;4.70;2.60;;;11.00;99.90;;;;;;5074328;28;20673;-68
2023/03/25 06:35:18;;;;;;;2.23;0.93;;;11.10;99.90;;;;;;5074549;28;20730;-68
2023/03/25 06:37:45;;;;;;;3.23;1.70;;;11.10;99.90;;;;;;5074335;28;20585;-68
2023/03/25 06:40:13;;;;;;;3.20;1.10;;;11.10;99.90;;;;;;5074323;28;20240;-67
2023/03/25 06:42:40;;;;;;;2.10;1.00;;;11.10;99.90;;;;;;5074339;28;20216;-68
2023/03/25 06:45:10;;;;;;;9.87;5.00;;;11.10;99.90;;;;;;5074329;28;20320;-68
2023/03/25 06:47:37;;;;;;;4.90;0.93;;;11.20;99.90;;;;;;5074153;28;20208;-68
2023/03/25 06:50:05;;;;;;;3.43;1.00;;;11.20;99.90;;;;;;5074200;28;20275;-68
2023/03/25 06:52:31;;;;;;;4.23;1.30;;;11.30;99.90;;;;;;5074203;28;20204;-68
2023/03/25 06:54:58;;;;;;;4.47;1.40;;;11.40;99.90;;;;;;5073786;28;20704;-68
2023/03/25 06:57:25;;;;;;;2.67;1.13;;;11.70;99.90;;;;;;5073992;28;20264;-68
2023/03/25 06:59:51;;;;;;;3.80;1.50;;;11.90;99.90;;;;;;5073834;28;20216;-68
2023/03/25 07:02:19;;;;;;;2.20;1.43;;;12.10;99.90;;;;;;5074101;28;20208;-65
2023/03/25 07:04:46;;;;;;;5.07;1.13;;;12.30;99.90;;;;;;5074079;28;20232;-65
2023/03/25 07:07:13;;;;;;;2.13;1.03;;;12.40;99.90;;;;;;5074390;28;20243;-68
2023/03/25 07:09:39;;;;;;;4.73;1.03;;;12.30;99.90;;;;;;5075648;28;20561;-67
2023/03/25 07:12:07;;;;;;;2.57;0.97;;;12.50;99.90;;;;;;5075015;28;20464;-67
2023/03/25 07:14:34;;;;;;;3.37;0.90;;;12.80;99.90;;;;;;5075061;28;20259;-66
2023/03/25 07:17:00;;;;;;;3.13;1.07;;;13.30;99.90;;;;;;5073290;28;20668;-64
2023/03/25 07:19:28;;;;;;;1.87;0.80;;;15.10;99.90;;;;;;5074470;28;20204;-67
2023/03/25 07:21:55;;;;;;;1.40;0.77;;;17.20;99.90;;;;;;5077260;28;20581;-69
2023/03/25 07:24:22;;;;;;;2.08;0.52;;;19.00;99.90;;;;;;5076601;28;20225;-67
2023/03/25 07:26:48;;;;;;;1.25;0.55;;;20.20;99.90;;;;;;5076499;28;20197;-66
2023/03/25 07:29:15;;;;;;;2.63;1.10;;;21.60;99.30;;;;;;5076509;28;20211;-67
2023/03/25 07:31:42;;;;;;;4.15;1.65;;;22.40;95.60;;;;;;5076089;28;20217;-67
2023/03/25 07:34:08;;;;;;;3.63;1.65;;;21.80;94.90;;;;;;5074660;28;20225;-67
2023/03/25 07:36:36;;;;;;;2.03;0.85;;;21.00;95.50;;;;;;5074428;28;20197;-66
2023/03/25 07:39:03;;;;;;;1.55;0.70;;;20.00;96.10;;;;;;5073730;28;20209;-65
2023/03/25 07:41:30;;;;;;;1.58;0.73;;;19.10;97.40;;;;;;5073821;28;20205;-66
2023/03/25 07:43:57;;;;;;;1.95;0.90;;;18.80;98.00;;;;;;5073602;28;20699;-66
2023/03/25 07:46:23;;;;;;;3.03;0.90;;;19.20;97.30;;;;;;5073262;28;20229;-66
2023/03/25 07:48:50;;;;;;;1.38;0.52;;;20.00;96.50;;;;;;5072974;28;20239;-67
2023/03/25 07:51:17;;;;;;;2.25;0.77;;;20.00;94.90;;;;;;5073461;28;20208;-66
2023/03/25 07:53:45;;;;;;;3.97;1.70;;;19.70;95.10;;;;;;5072976;28;20208;-66
2023/03/25 07:56:12;;;;;;;3.63;2.00;;;19.10;95.30;;;;;;5072673;28;20270;-65
2023/03/25 07:58:39;;;;;;;3.90;1.02;;;18.40;96.50;;;;;;5072386;28;20207;-67
2023/03/25 08:01:06;;;;;;;4.38;1.00;;;17.70;97.10;;;;;;5072732;28;20623;-66
2023/03/25 08:03:33;;;;;;;2.42;0.70;;;17.10;98.40;;;;;;5072813;28;20209;-67
2023/03/25 08:06:01;;;;;;;1.98;0.93;;;16.70;98.80;;;;;;5072210;28;20236;-66
2023/03/25 08:08:29;;;;;;;2.55;0.93;;;16.30;99.90;;;;;;5072247;28;20209;-65
2023/03/25 08:10:58;;;;;;;2.63;0.93;;;16.20;99.90;;;;;;5072320;28;20274;-67
2023/03/25 08:13:24;;;;;;;3.78;1.02;;;16.30;99.90;;;;;;5072556;28;20208;-66
2023/03/25 08:15:51;;;;;;;1.48;0.68;;;16.30;99.90;;;;;;5072343;28;20307;-66
2023/03/25 08:18:19;;;;;;;3.97;0.77;;;16.30;99.90;;;;;;5072262;28;20211;-65
2023/03/25 08:20:46;;;;;;;3.53;0.70;;;16.20;99.90;;;;;;5072076;28;20623;-66
2023/03/25 08:23:17;;;;;;;2.17;0.93;;;16.30;99.90;;;;;;5072298;28;20237;-66
2023/03/25 08:25:44;;;;;;;1.90;1.17;;;16.50;99.90;;;;;;5071949;28;20323;-67
2023/03/25 08:28:16;;;;;;;5.53;2.92;;;16.50;99.90;;;;;;5072031;28;20266;-60
2023/03/25 08:30:43;;;;;;;1.80;0.95;;;16.70;99.90;;;;;;5072032;28;20691;-59
2023/03/25 08:33:10;;;;;;;3.00;0.90;;;17.00;99.80;;;;;;5072173;28;20205;-60
2023/03/25 08:35:38;;;;;;;3.83;0.70;;;17.20;99.60;;;;;;5072084;28;20236;-61
2023/03/25 08:38:05;;;;;;;2.05;0.80;;;17.40;99.70;;;;;;5071948;28;20216;-59
2023/03/25 08:40:32;;;;;;;2.55;0.90;;;17.40;99.20;;;;;;5072069;28;20230;-61
2023/03/25 08:42:59;;;;;;;1.95;0.70;;;17.50;99.10;;;;;;5071807;28;20677;-60
2023/03/25 08:45:27;;;;;;;2.13;1.20;;;17.20;98.50;;;;;;5071871;28;20233;-60
2023/03/25 08:47:53;;;;;;;4.82;2.50;;;17.10;99.10;;;;;;5072192;28;20213;-61
2023/03/25 08:50:20;;;;;;;3.28;0.90;;;17.00;98.80;;;;;;5071995;28;20200;-60
2023/03/25 08:52:47;;;;;;;2.22;0.80;;;16.90;98.90;;;;;;5071848;28;20241;-61
2023/03/25 08:55:14;;;;;;;1.00;0.73;;;16.90;98.90;;;;;;5071994;28;20717;-60
2023/03/25 08:57:42;;;;;;;2.70;1.30;;;16.80;98.90;;;;;;5072062;28;20292;-61
2023/03/25 09:00:12;;;;;;;2.85;0.90;;;16.50;99.00;;;;;;5071636;28;20292;-60
2023/03/25 09:02:41;;;;;;;3.57;0.90;;;16.00;99.90;;;;;;5071842;28;20299;-59
2023/03/25 09:05:09;;;;;;;1.73;0.77;;;15.60;99.90;;;;;;5072019;28;20676;-61
2023/03/25 09:07:36;;;;;;;2.03;1.20;;;15.20;99.90;;;;;;5071870;28;20205;-61
2023/03/25 09:10:05;;;;;;;2.30;1.07;;;14.80;99.90;;;;;;5071679;28;20259;-61
2023/03/25 09:12:31;;;;;;;6.17;2.63;;;14.60;99.90;;;;;;5071665;28;20204;-60
2023/03/25 09:14:58;;;;;;;1.67;0.40;;;14.50;99.90;;;;;;5071784;28;20605;-62
2023/03/25 09:17:26;;;;;;;0.63;0.27;;;14.50;99.90;;;;;;5071488;28;20200;-62
2023/03/25 09:19:54;;;;;;;1.03;0.20;;;14.60;99.90;;;;;;5071357;28;20209;-62
2023/03/25 09:22:20;;;;;;;0.90;0.20;;;14.40;99.90;;;;;;5071823;28;20212;-62
2023/03/25 09:24:47;;;;;;;1.23;0.13;;;14.20;99.90;;;;;;5071532;28;20221;-62
2023/03/25 09:27:14;;;;;;;0.53;0.10;;;14.00;99.90;;;;;;5071494;28;20731;-61
2023/03/25 09:29:41;;;;;;;0.77;0.43;;;14.00;99.90;;;;;;5071287;28;20243;-61
2023/03/25 09:32:08;;;;;;;0.80;0.10;;;14.40;99.90;;;;;;5071623;28;20212;-61
2023/03/25 09:34:34;;;;;;;2.90;1.80;;;14.70;99.90;;;;;;5071244;28;20232;-61
2023/03/25 09:37:03;;;;;;;1.77;0.60;;;15.20;99.90;;;;;;5071641;28;20205;-61
2023/03/25 09:39:30;;;;;;;0.50;0.20;;;15.60;99.90;;;;;;5071710;28;20208;-61
2023/03/25 09:42:29;;;;;;;0.70;0.30;;;15.80;99.90;;;;;;5075122;28;20219;-61
2023/03/25 09:45:01;;;;;;;0.90;0.30;;;15.90;99.90;;;;;;5070936;28;20244;-62
2023/03/25 09:47:32;;;;;;;3.67;0.47;;;15.90;99.90;;;;;;5075195;28;20323;-61
2023/03/25 09:50:02;;;;;;;1.17;0.40;;;15.90;99.90;;;;;;5074819;28;20291;-61
2023/03/25 09:52:38;;;;;;;3.83;0.43;;;16.00;99.90;;;;;;5074858;28;20695;-62
2023/03/25 09:55:11;;;;;;;0.60;0.23;;;16.00;99.90;;;;;;5074754;28;20638;-61
2023/03/25 09:57:47;;;;;;;5.43;0.40;;;16.20;99.90;;;;;;5075083;28;20205;-61
2023/03/25 10:00:19;;;;;;;1.15;0.30;;;16.40;99.90;;;;;;5074728;28;20219;-61
2023/03/25 10:02:52;;;;;;;1.47;0.40;;;16.70;99.90;;;;;;5074939;28;20214;-60
2023/03/25 10:05:45;;;;;;;1.10;0.38;;;17.00;99.90;;;;;;5074403;28;20514;-61
2023/03/25 10:08:21;;;;;;;1.40;0.40;;;17.40;99.90;;;;;;5074938;28;20258;-60
2023/03/25 10:10:53;;;;;;;1.98;0.40;;;17.70;99.90;;;;;;5074659;28;20266;-61
2023/03/25 10:13:27;;;;;;;1.42;0.43;;;18.00;99.90;;;;;;5074540;28;20201;-60
2023/03/25 10:15:59;;;;;;;0.98;0.52;;;18.10;99.90;;;;;;5074469;28;20225;-61
2023/03/25 10:18:38;;;;;;;2.80;1.77;;;18.10;99.90;;;;;;5074513;28;20660;-62
2023/03/25 10:21:11;;;;;;;2.72;0.73;;;18.10;99.90;;;;;;5074694;28;20217;-62
2023/03/25 10:23:45;;;;;;;0.47;0.40;;;17.90;99.90;;;;;;5074320;28;20209;-62
2023/03/25 10:26:17;;;;;;;2.30;0.70;;;17.60;99.90;;;;;;5074128;28;20248;-62
2023/03/25 10:28:50;;;;;;;0.65;0.40;;;17.50;99.90;;;;;;5073953;28;20209;-61
2023/03/25 10:31:19;;;;;;;7.25;2.92;;;17.50;99.90;;;;;;5074357;28;20205;-62
2023/03/25 10:33:51;;;;;;;1.35;0.30;;;17.70;99.90;;;;;;5074282;28;20212;-61
2023/03/25 10:36:20;;;;;;;1.20;0.73;;;17.70;99.90;;;;;;5074036;28;20204;-63
2023/03/25 10:38:53;;;;;;;0.77;0.40;;;17.60;99.90;;;;;;5073991;28;20208;-62
2023/03/25 10:41:25;;;;;;;1.58;0.55;;;17.80;99.90;;;;;;5074392;28;20201;-62
2023/03/25 10:43:52;;;;;;;1.60;0.43;;;17.80;99.90;;;;;;5074013;28;20635;-61
2023/03/25 10:46:26;;;;;;;3.00;0.90;;;17.50;99.90;;;;;;5073842;28;20322;-62
2023/03/25 10:48:52;;;;;;;1.25;0.52;;;17.30;99.90;;;;;;5073756;28;20212;-61
2023/03/25 10:51:24;;;;;;;1.42;0.60;;;17.10;99.90;;;;;;5073392;28;20204;-61
2023/03/25 10:53:52;;;;;;;2.03;1.00;;;16.70;99.90;;;;;;5073971;28;20627;-61
2023/03/25 10:56:23;;;;;;;1.77;0.33;;;16.10;99.90;;;;;;5073849;28;20630;-62
2023/03/25 10:58:53;;;;;;;2.07;0.63;;;15.80;99.90;;;;;;5073743;28;20601;-60
2023/03/25 11:01:22;;;;;;;3.43;0.63;;;15.50;99.90;;;;;;5073757;28;20220;-62
2023/03/25 11:03:51;;;;;;;2.63;0.80;;;15.30;99.90;;;;;;5073654;28;20205;-61
2023/03/25 11:06:25;;;;;;;1.77;0.60;;;15.10;99.90;;;;;;5073658;28;20332;-62
2023/03/25 11:09:18;;;;;;;1.83;1.00;;;14.90;99.90;;;;;;5073455;28;20239;-62
2023/03/25 11:11:46;;;;;;;1.50;0.90;;;15.00;99.90;;;;;;5073549;28;20212;-61
2023/03/25 11:14:13;;;;;;;2.73;0.80;;;14.80;99.90;;;;;;5073792;28;20232;-60
2023/03/25 11:16:46;;;;;;;1.40;1.10;;;14.60;99.90;;;;;;5073290;28;20691;-62
2023/03/25 11:19:20;;;;;;;3.73;0.70;;;14.50;99.90;;;;;;5073184;28;20672;-62
2023/03/25 11:21:52;;;;;;;6.93;1.00;;;14.60;99.90;;;;;;5073362;28;20201;-62
2023/03/25 11:24:22;;;;;;;0.63;0.40;;;14.80;99.90;;;;;;5073142;28;20716;-61
2023/03/25 11:26:51;;;;;;;1.57;0.50;;;15.00;99.90;;;;;;5072863;28;20224;-60
2023/03/25 11:29:20;;;;;;;0.83;0.50;;;15.30;99.90;;;;;;5073131;28;20205;-61
2023/03/25 11:31:57;;;;;;;1.27;0.37;;;15.90;99.90;;;;;;5073374;28;20562;-60
2023/03/25 11:34:24;;;;;;;2.35;0.43;;;16.40;99.90;;;;;;5073051;28;20278;-68
2023/03/25 11:36:54;;;;;;;2.42;0.93;;;16.80;99.90;;;;;;5085572;28;20239;-64
2023/03/25 11:39:30;;;;;;;1.67;0.60;;;16.90;99.90;;;;;;5091850;28;20204;-61
2023/03/25 11:41:57;;;;;;;1.48;0.50;;;16.70;99.90;;;;;;5092275;28;20612;-61
2023/03/25 11:44:27;;;;;;;0.90;0.43;;;16.60;99.90;;;;;;5091915;28;20228;-61
2023/03/25 11:46:56;;;;;;;1.75;0.85;;;16.70;99.90;;;;;;5091922;28;20255;-65
2023/03/25 11:49:25;;;;;;;7.28;1.63;;;16.80;99.90;;;;;;5091770;28;20667;-64
2023/03/25 11:51:58;;;;;;;2.72;1.23;;;16.90;99.90;;;;;;5092219;28;20671;-66
2023/03/25 11:54:27;;;;;;;2.33;1.35;;;17.10;99.60;;;;;;5092303;28;20228;-66
2023/03/25 11:56:55;;;;;;;3.13;1.73;;;17.20;98.70;;;;;;5091613;28;20203;-68
2023/03/25 11:59:25;;;;;;;3.05;1.40;;;17.30;97.70;;;;;;5092187;28;20204;-59
2023/03/25 12:02:02;;;;;;;3.33;1.42;;;17.20;97.80;;;;;;5092606;28;20568;-59
2023/03/25 12:04:29;;;;;;;2.53;0.67;;;17.10;98.60;;;;;;5092248;28;20674;-61
2023/03/25 12:06:59;;;;;;;1.35;0.73;;;17.00;98.20;;;;;;5092770;28;20277;-60
2023/03/25 12:09:30;;;;;;;1.80;0.43;;;17.00;97.50;;;;;;5092205;28;20204;-59
2023/03/25 12:12:09;;;;;;;0.90;0.50;;;17.20;97.50;;;;;;5092602;28;20205;-61
2023/03/25 12:14:48;;;;;;;4.13;0.82;;;17.40;98.00;;;;;;5092206;28;20223;-60
2023/03/25 12:17:27;;;;;;;3.08;0.70;;;17.60;97.70;;;;;;5092772;28;20606;-60
2023/03/25 12:20:06;;;;;;;0.95;0.40;;;17.60;97.00;;;;;;5092364;28;20694;-59
2023/03/25 12:22:44;;;;;;;1.45;0.90;;;17.50;97.10;;;;;;5092822;28;20203;-60
2023/03/25 12:25:21;;;;;;;2.00;0.90;;;17.30;97.30;;;;;;5092387;28;20224;-59
2023/03/25 12:28:04;;;;;;;1.35;0.80;;;17.00;96.70;;;;;;5092725;28;20219;-60
2023/03/25 12:30:45;;;;;;;4.43;2.20;;;16.80;96.70;;;;;;5092485;28;20203;-58
2023/03/25 12:33:26;;;;;;;1.38;0.85;;;16.60;97.20;;;;;;5092533;28;20203;-59
2023/03/25 12:36:12;;;;;;;2.05;0.90;;;16.40;97.20;;;;;;5092684;28;20632;-60
2023/03/25 12:38:49;;;;;;;5.33;2.20;;;16.30;97.00;;;;;;5092702;28;20246;-60
2023/03/25 12:41:23;;;;;;;1.33;0.93;;;16.30;97.30;;;;;;5092060;28;20203;-66
2023/03/25 12:44:02;;;;;;;2.65;0.60;;;16.50;97.50;;;;;;5092004;28;20281;-63
2023/03/25 12:47:06;;;;;;;1.65;1.10;;;16.80;97.60;;;;;;5092387;28;20231;-63
2023/03/25 12:49:50;;;;;;;0.87;0.50;;;16.80;97.10;;;;;;5088432;28;20257;-63
2023/03/25 12:52:24;;;;;;;2.90;0.88;;;16.70;97.70;;;;;;5092076;28;20215;-64
2023/03/25 12:55:06;;;;;;;1.35;0.50;;;16.50;98.30;;;;;;5092162;28;20227;-64
2023/03/25 12:57:47;;;;;;;2.63;0.38;;;16.20;99.90;;;;;;5092204;28;20204;-64
2023/03/25 13:00:37;;;;;;;1.60;0.50;;;15.90;98.70;;;;;;5092015;28;20207;-64
2023/03/25 13:03:21;;;;;;;2.60;0.20;;;15.80;99.90;;;;;;5092232;28;20212;-64
2023/03/25 13:05:53;;;;;;;0.88;0.50;;;15.80;99.90;;;;;;5091683;28;20277;-64